Time;durP1;ratioP1;P1;durP2;ratioP2;P2;SDS_P1;SDS_P2;PMS_P1;PMS_P2;Temp;Humidity;BMP_temperature;BMP_pressure;BME280_temperature;BME280_humidity;BME280_pressure;Samples;Min_cycle;Max_cycle;Signal;HPM_P1;HPM_P2
2022/05/11 00:01:12;;;;;;;1.55;1.02;;;21.60;87.40;;;;;;5047738;28;20208;-36
2022/05/11 00:03:40;;;;;;;2.45;1.30;;;21.60;87.30;;;;;;5048545;28;20204;-35
2022/05/11 00:06:11;;;;;;;1.35;1.08;;;21.60;87.40;;;;;;5053595;28;20207;-35
2022/05/11 00:08:39;;;;;;;1.25;1.08;;;21.60;87.40;;;;;;5045415;28;20781;-35
2022/05/11 00:11:06;;;;;;;2.30;1.23;;;21.60;87.40;;;;;;5059155;28;20778;-36
2022/05/11 00:13:34;;;;;;;2.25;1.20;;;21.60;87.50;;;;;;5058559;28;20187;-35
2022/05/11 00:16:03;;;;;;;1.45;1.08;;;21.50;87.60;;;;;;5060051;28;20203;-35
2022/05/11 00:18:31;;;;;;;1.77;1.20;;;21.50;87.50;;;;;;5066077;28;20207;-35
2022/05/11 00:21:01;;;;;;;1.60;1.13;;;21.50;87.50;;;;;;5056624;28;20782;-35
2022/05/11 00:23:28;;;;;;;1.13;1.00;;;21.50;87.60;;;;;;5059600;28;20235;-35
2022/05/11 00:25:58;;;;;;;1.38;1.05;;;21.50;87.60;;;;;;5049081;28;20630;-35
2022/05/11 00:28:25;;;;;;;1.80;1.23;;;21.50;87.70;;;;;;5050240;28;20674;-36
2022/05/11 00:30:53;;;;;;;3.60;1.13;;;21.50;87.80;;;;;;5066759;28;20608;-35
2022/05/11 00:33:21;;;;;;;2.08;1.13;;;21.50;87.80;;;;;;5058568;28;20710;-35
2022/05/11 00:35:54;;;;;;;2.33;1.20;;;21.40;87.70;;;;;;5053618;28;20212;-35
2022/05/11 00:38:26;;;;;;;1.85;1.20;;;21.50;87.80;;;;;;5062760;28;20223;-35
2022/05/11 00:41:13;;;;;;;1.95;1.10;;;21.40;87.90;;;;;;5051609;28;20623;-36
2022/05/11 00:43:50;;;;;;;1.63;1.20;;;21.40;87.90;;;;;;5053923;28;20210;-35
2022/05/11 00:46:24;;;;;;;2.40;1.10;;;21.40;88.00;;;;;;5064104;28;20211;-35
2022/05/11 00:51:44;;;;;;;1.00;0.90;;;21.40;88.00;;;;;;5068637;28;20629;-35
2022/05/11 00:54:19;;;;;;;2.38;1.00;;;21.40;88.10;;;;;;5061531;28;20200;-35
2022/05/11 00:56:50;;;;;;;1.88;1.00;;;21.40;88.10;;;;;;5059567;28;20285;-35
2022/05/11 00:59:29;;;;;;;3.10;1.25;;;21.40;88.10;;;;;;5050787;28;20594;-35
2022/05/11 01:02:02;;;;;;;2.08;1.20;;;21.40;88.10;;;;;;5050366;28;20216;-35
2022/05/11 01:04:31;;;;;;;1.33;1.00;;;21.30;88.10;;;;;;5063864;28;20674;-35
2022/05/11 01:07:01;;;;;;;1.10;1.00;;;21.30;88.00;;;;;;5059714;28;20211;-35
2022/05/11 01:09:31;;;;;;;2.28;0.93;;;21.30;88.10;;;;;;5054798;28;20203;-35
2022/05/11 01:12:05;;;;;;;2.10;1.00;;;21.30;88.10;;;;;;5065157;28;20289;-35
2022/05/11 01:14:38;;;;;;;2.25;1.10;;;21.30;88.10;;;;;;5058270;28;20249;-35
2022/05/11 01:17:09;;;;;;;1.95;1.08;;;21.30;88.20;;;;;;5060452;28;20199;-35
2022/05/11 01:19:41;;;;;;;1.55;0.93;;;21.30;88.40;;;;;;5058223;28;20203;-35
2022/05/11 01:22:23;;;;;;;3.42;1.30;;;21.30;88.50;;;;;;5068417;28;20219;-35
2022/05/11 01:24:53;;;;;;;1.30;1.00;;;21.20;88.40;;;;;;5066506;28;20199;-35
2022/05/11 01:27:43;;;;;;;2.80;1.02;;;21.20;88.20;;;;;;5055774;28;20589;-35
2022/05/11 01:30:13;;;;;;;2.10;1.20;;;21.20;88.40;;;;;;5061040;28;20239;-35
2022/05/11 01:32:49;;;;;;;1.13;0.95;;;21.20;88.40;;;;;;5049332;28;20720;-35
2022/05/11 01:35:36;;;;;;;2.03;1.02;;;21.10;88.30;;;;;;5063345;28;20214;-35
2022/05/11 01:38:17;;;;;;;1.50;1.10;;;21.10;88.40;;;;;;5062013;28;20226;-35
2022/05/11 01:40:46;;;;;;;1.75;1.10;;;21.10;88.50;;;;;;5067440;28;20234;-35
2022/05/11 01:43:15;;;;;;;1.70;1.35;;;21.10;88.50;;;;;;5068545;28;20207;-35
2022/05/11 01:45:45;;;;;;;1.38;1.05;;;21.10;88.70;;;;;;5049514;28;20610;-35
2022/05/11 01:48:15;;;;;;;2.38;1.10;;;21.10;88.60;;;;;;5059649;28;20200;-35
2022/05/11 01:50:45;;;;;;;2.47;1.10;;;21.00;88.50;;;;;;5065591;28;20682;-35
2022/05/11 01:53:15;;;;;;;1.65;1.23;;;21.00;88.50;;;;;;5057637;28;20645;-35
2022/05/11 01:55:45;;;;;;;1.67;1.00;;;21.00;88.60;;;;;;5064575;28;20208;-35
2022/05/11 01:58:18;;;;;;;1.42;1.00;;;21.00;88.70;;;;;;5057064;28;20330;-35
2022/05/11 02:00:48;;;;;;;1.25;0.90;;;21.00;88.60;;;;;;5064447;28;20231;-35
2022/05/11 02:03:18;;;;;;;1.95;1.10;;;21.00;88.70;;;;;;5055230;28;20235;-35
2022/05/11 02:08:52;;;;;;;1.60;1.50;;;20.90;89.40;;;;;;4993446;28;20673;-34
2022/05/11 02:11:22;;;;;;;1.10;1.00;;;20.90;88.80;;;;;;5018154;28;20268;-34
2022/05/11 02:13:49;;;;;;;1.40;1.17;;;20.90;88.80;;;;;;5035388;28;20355;-34
2022/05/11 02:16:18;;;;;;;2.58;1.15;;;20.80;89.10;;;;;;5048125;28;20294;-35
2022/05/11 02:18:46;;;;;;;1.73;1.30;;;20.80;89.10;;;;;;5052958;28;20670;-35
2022/05/11 02:21:13;;;;;;;2.85;1.30;;;20.80;88.90;;;;;;5058496;28;20658;-35
2022/05/11 02:23:47;;;;;;;2.35;1.30;;;20.80;89.00;;;;;;5060581;28;20211;-35
2022/05/11 02:26:17;;;;;;;2.13;1.30;;;20.80;89.10;;;;;;5060168;28;20227;-35
2022/05/11 02:28:48;;;;;;;1.83;1.33;;;20.80;89.00;;;;;;5064115;28;20208;-35
2022/05/11 02:31:15;;;;;;;1.50;1.38;;;20.80;89.10;;;;;;5068329;28;20195;-35
2022/05/11 02:33:47;;;;;;;2.08;1.40;;;20.80;89.20;;;;;;5067473;28;20714;-35
2022/05/11 02:36:14;;;;;;;2.30;1.25;;;20.70;89.20;;;;;;5053080;28;20697;-35
2022/05/11 02:38:45;;;;;;;1.17;1.08;;;20.70;89.30;;;;;;5049967;28;20580;-35
2022/05/11 02:41:13;;;;;;;1.73;1.50;;;20.70;89.30;;;;;;5052104;28;20330;-35
2022/05/11 02:43:40;;;;;;;2.35;1.23;;;20.60;89.20;;;;;;5066308;28;20203;-35
2022/05/11 02:46:10;;;;;;;2.63;1.52;;;20.60;89.30;;;;;;5065910;28;20307;-35
2022/05/11 02:48:40;;;;;;;3.65;1.67;;;20.60;89.40;;;;;;5064979;28;20211;-35
2022/05/11 02:51:08;;;;;;;3.28;1.50;;;20.50;89.50;;;;;;5054725;28;20219;-35
2022/05/11 02:53:37;;;;;;;2.15;1.60;;;20.50;89.50;;;;;;5049608;28;20220;-35
2022/05/11 02:56:06;;;;;;;2.17;1.40;;;20.50;89.60;;;;;;5059599;28;20679;-35
2022/05/11 02:58:36;;;;;;;3.13;1.35;;;20.50;89.80;;;;;;5052268;28;20684;-35
2022/05/11 03:01:04;;;;;;;2.13;1.58;;;20.40;89.60;;;;;;5057293;28;20223;-35
2022/05/11 03:03:34;;;;;;;3.15;1.60;;;20.40;89.60;;;;;;5053380;28;20569;-35
2022/05/11 03:06:06;;;;;;;3.50;1.80;;;20.40;89.70;;;;;;5059185;28;20210;-35
2022/05/11 03:08:38;;;;;;;1.83;1.60;;;20.30;89.70;;;;;;5054535;28;20765;-35
2022/05/11 03:11:06;;;;;;;2.95;1.50;;;20.30;89.70;;;;;;5063251;28;20262;-35
2022/05/11 03:13:35;;;;;;;3.90;1.65;;;20.30;89.70;;;;;;5050362;28;20800;-35
2022/05/11 03:16:06;;;;;;;2.60;1.73;;;20.30;89.80;;;;;;5054327;28;20302;-35
2022/05/11 03:18:33;;;;;;;2.65;1.95;;;20.20;89.70;;;;;;5056367;28;20644;-35
2022/05/11 03:21:00;;;;;;;1.83;1.73;;;20.20;89.80;;;;;;5062968;28;20208;-35
2022/05/11 03:23:30;;;;;;;2.10;1.90;;;20.10;89.80;;;;;;5062506;28;20290;-35
2022/05/11 03:26:00;;;;;;;3.45;2.03;;;20.10;89.90;;;;;;5056529;28;20211;-35
2022/05/11 03:28:27;;;;;;;2.22;2.03;;;20.10;89.90;;;;;;5050941;28;20553;-35
2022/05/11 03:30:57;;;;;;;4.50;2.30;;;20.00;90.00;;;;;;5058058;28;20294;-35
2022/05/11 03:36:15;;;;;;;2.97;2.15;;;19.90;90.00;;;;;;5066922;28;20196;-35
2022/05/11 03:38:42;;;;;;;2.72;2.15;;;19.90;90.00;;;;;;5060590;28;20200;-35
2022/05/11 03:41:11;;;;;;;3.17;2.15;;;19.90;90.00;;;;;;5046050;28;20641;-35
2022/05/11 03:43:41;;;;;;;2.55;2.08;;;19.80;90.00;;;;;;5049186;28;20285;-35
2022/05/11 03:46:16;;;;;;;3.35;2.35;;;19.80;90.00;;;;;;5055593;28;20608;-35
2022/05/11 03:48:47;;;;;;;3.50;2.50;;;19.80;90.10;;;;;;5062029;28;20261;-33
2022/05/11 03:51:17;;;;;;;5.18;3.08;;;19.70;90.10;;;;;;5054925;28;20215;-34
2022/05/11 03:53:44;;;;;;;4.10;2.42;;;19.70;90.00;;;;;;5068036;28;20318;-33
2022/05/11 03:56:11;;;;;;;2.70;2.42;;;19.60;90.00;;;;;;5056622;28;20197;-33
2022/05/11 03:58:39;;;;;;;3.75;2.72;;;19.60;90.10;;;;;;5064952;28;20213;-34
2022/05/11 04:01:06;;;;;;;3.70;2.90;;;19.50;90.10;;;;;;5058060;28;20557;-34
2022/05/11 04:03:37;;;;;;;2.90;2.60;;;19.50;90.10;;;;;;5063303;28;20204;-33
2022/05/11 04:06:10;;;;;;;4.28;3.10;;;19.50;90.10;;;;;;5060753;28;20199;-32
2022/05/11 04:08:42;;;;;;;3.97;2.70;;;19.40;90.10;;;;;;5056123;28;20208;-33
2022/05/11 04:11:10;;;;;;;3.35;3.00;;;19.40;90.20;;;;;;5058586;28;20330;-34
2022/05/11 04:13:40;;;;;;;3.38;2.83;;;19.30;90.10;;;;;;5066090;28;20713;-34
2022/05/11 04:16:08;;;;;;;5.18;3.97;;;19.30;90.10;;;;;;5065791;28;20281;-33
2022/05/11 04:18:42;;;;;;;3.63;2.80;;;19.20;90.10;;;;;;5058505;28;20220;-34
2022/05/11 04:21:10;;;;;;;4.70;3.17;;;19.20;90.10;;;;;;5057313;28;20269;-33
2022/05/11 04:23:43;;;;;;;6.38;2.72;;;19.20;90.10;;;;;;5056615;28;20261;-33
2022/05/11 04:26:16;;;;;;;3.03;2.75;;;19.10;90.10;;;;;;5052352;28;20208;-32
2022/05/11 04:28:46;;;;;;;3.38;2.80;;;19.10;90.20;;;;;;5048769;28;20192;-32
2022/05/11 04:31:13;;;;;;;3.58;3.25;;;19.00;90.50;;;;;;5057984;28;20290;-32
2022/05/11 04:33:43;;;;;;;4.32;3.20;;;19.00;90.20;;;;;;5053159;28;20216;-33
2022/05/11 04:36:11;;;;;;;5.28;3.60;;;19.00;90.20;;;;;;5052544;28;20200;-35
2022/05/11 04:38:38;;;;;;;4.15;3.33;;;18.90;90.20;;;;;;5062681;28;20203;-35
2022/05/11 04:41:05;;;;;;;5.90;3.45;;;18.90;90.30;;;;;;5068808;28;20208;-33
2022/05/11 04:43:37;;;;;;;6.65;3.78;;;18.90;90.30;;;;;;5051907;28;20216;-32
2022/05/11 04:46:09;;;;;;;5.50;3.30;;;18.90;90.30;;;;;;5067828;28;20208;-33
2022/05/11 04:48:38;;;;;;;4.30;3.15;;;18.90;90.30;;;;;;5057055;28;20577;-33
2022/05/11 04:51:08;;;;;;;4.55;3.63;;;18.90;90.30;;;;;;5056793;28;20212;-32
2022/05/11 04:53:35;;;;;;;5.05;3.00;;;18.90;90.50;;;;;;5055386;28;20242;-35
2022/05/11 04:56:02;;;;;;;4.85;3.30;;;18.80;90.30;;;;;;5064175;28;20463;-36
2022/05/11 04:58:32;;;;;;;5.35;3.38;;;18.80;90.40;;;;;;5059499;28;20284;-33
2022/05/11 05:01:00;;;;;;;5.85;3.40;;;18.80;90.50;;;;;;5061824;28;20216;-32
2022/05/11 05:03:29;;;;;;;5.38;3.50;;;18.70;90.40;;;;;;5062424;28;20470;-32
2022/05/11 05:05:59;;;;;;;5.35;3.00;;;18.70;90.40;;;;;;5066135;28;20211;-33
2022/05/11 05:08:29;;;;;;;3.90;3.47;;;18.70;90.50;;;;;;5056965;28;20215;-32
2022/05/11 05:10:59;;;;;;;5.40;3.58;;;18.70;90.50;;;;;;5051755;28;20326;-32
2022/05/11 05:13:26;;;;;;;6.82;3.25;;;18.70;90.50;;;;;;5054048;28;20266;-35
2022/05/11 05:15:57;;;;;;;6.35;3.10;;;18.70;90.60;;;;;;5053013;28;20199;-32
2022/05/11 05:18:32;;;;;;;6.55;3.42;;;18.70;90.60;;;;;;5052962;28;20212;-33
2022/05/11 05:21:04;;;;;;;4.85;3.35;;;18.70;90.70;;;;;;5055141;28;20204;-32
2022/05/11 05:23:31;;;;;;;3.83;3.00;;;18.70;90.60;;;;;;5054961;28;20285;-32
2022/05/11 05:26:00;;;;;;;4.53;3.40;;;18.70;90.60;;;;;;5060740;28;20219;-33
2022/05/11 05:31:18;;;;;;;5.60;3.33;;;18.70;90.70;;;;;;5061604;28;20214;-33
2022/05/11 05:33:45;;;;;;;7.85;4.38;;;18.70;90.80;;;;;;5061253;28;20300;-35
2022/05/11 05:36:15;;;;;;;8.40;3.40;;;18.70;90.90;;;;;;5052204;28;20631;-35
2022/05/11 05:38:43;;;;;;;6.45;3.85;;;18.70;90.80;;;;;;5052292;28;20200;-35
2022/05/11 05:41:12;;;;;;;6.75;3.50;;;18.80;91.00;;;;;;5063315;28;20277;-35
2022/05/11 05:43:44;;;;;;;4.30;2.70;;;18.80;91.00;;;;;;5049817;28;20262;-35
2022/05/11 05:46:14;;;;;;;3.95;2.20;;;18.80;91.10;;;;;;5060223;28;20257;-35
2022/05/11 05:48:41;;;;;;;3.80;2.30;;;18.80;91.50;;;;;;5064772;28;20569;-33
2022/05/11 05:51:13;;;;;;;5.50;2.17;;;18.80;91.30;;;;;;5049303;28;20449;-32
2022/05/11 05:53:45;;;;;;;8.70;3.05;;;18.90;91.40;;;;;;5050511;28;20872;-32
2022/05/11 05:56:14;;;;;;;8.63;3.13;;;18.90;91.30;;;;;;5053385;28;20204;-32
2022/05/11 05:58:45;;;;;;;5.43;2.50;;;18.90;91.30;;;;;;5058435;28;20684;-32
2022/05/11 06:01:16;;;;;;;4.10;1.98;;;18.90;91.20;;;;;;5059573;28;20227;-35
2022/05/11 06:03:44;;;;;;;3.22;1.60;;;19.00;91.40;;;;;;5061288;28;20280;-36
2022/05/11 06:06:18;;;;;;;4.43;2.38;;;19.00;91.30;;;;;;5057349;28;20204;-36
2022/05/11 06:08:47;;;;;;;2.50;1.55;;;19.00;91.40;;;;;;5055080;28;20275;-36
2022/05/11 06:11:15;;;;;;;6.05;2.15;;;19.00;92.00;;;;;;5065326;28;20270;-36
2022/05/11 06:13:47;;;;;;;9.48;1.88;;;19.00;91.60;;;;;;5050484;28;20701;-36
2022/05/11 06:16:18;;;;;;;6.93;1.70;;;19.00;91.60;;;;;;5058174;28;20195;-36
2022/05/11 06:18:46;;;;;;;6.55;1.67;;;19.00;91.70;;;;;;5068880;28;20196;-36
2022/05/11 06:21:16;;;;;;;4.10;1.60;;;19.00;91.80;;;;;;5056921;28;20639;-36
2022/05/11 06:23:44;;;;;;;5.25;2.33;;;19.10;91.60;;;;;;5049662;28;20207;-34
2022/05/11 06:26:12;;;;;;;7.85;2.05;;;19.20;91.70;;;;;;5047399;28;20207;-36
2022/05/11 06:28:42;;;;;;;7.32;1.75;;;19.20;91.70;;;;;;5047449;28;20223;-36
2022/05/11 06:31:21;;;;;;;6.90;2.00;;;19.20;91.70;;;;;;5053431;28;20198;-36
2022/05/11 06:33:50;;;;;;;13.70;2.28;;;19.20;91.70;;;;;;5057553;28;20220;-36
2022/05/11 06:36:23;;;;;;;7.97;1.90;;;19.20;91.70;;;;;;5047115;28;20261;-36
2022/05/11 06:38:53;;;;;;;5.70;1.75;;;19.20;91.70;;;;;;5059376;28;20207;-36
2022/05/11 06:41:23;;;;;;;10.80;2.28;;;19.30;91.60;;;;;;5067374;28;21214;-36
2022/05/11 06:43:51;;;;;;;7.18;2.05;;;19.30;91.60;;;;;;5047043;28;20843;-34
2022/05/11 06:46:21;;;;;;;7.35;1.95;;;19.20;91.70;;;;;;5051514;28;20212;-34
2022/05/11 06:48:56;;;;;;;4.32;1.67;;;19.30;91.60;;;;;;5061706;28;20203;-34
2022/05/11 06:51:26;;;;;;;8.32;2.03;;;19.30;91.50;;;;;;5059344;28;20214;-34
2022/05/11 06:59:36;;;;;;;6.05;1.60;;;19.20;91.60;;;;;;5038078;28;20199;-35
2022/05/11 07:02:04;;;;;;;6.47;1.80;;;19.20;91.60;;;;;;5051943;28;21006;-36
2022/05/11 07:04:37;;;;;;;7.72;1.88;;;19.30;91.60;;;;;;5047506;28;20309;-34
2022/05/11 07:07:06;;;;;;;8.43;1.88;;;19.30;91.50;;;;;;5047941;28;20675;-35
2022/05/11 07:09:39;;;;;;;9.93;1.40;;;19.40;91.50;;;;;;5046047;28;20682;-34
2022/05/11 07:12:25;;;;;;;9.25;2.38;;;19.40;91.50;;;;;;5054592;28;20235;-35
2022/05/11 07:14:55;;;;;;;6.88;2.15;;;19.40;91.60;;;;;;5055278;28;20684;-34
2022/05/11 07:17:33;;;;;;;9.40;2.33;;;19.40;91.60;;;;;;5053466;28;20633;-35
2022/05/11 07:20:03;;;;;;;16.25;3.20;;;19.50;91.50;;;;;;5057468;28;20565;-35
2022/05/11 07:22:30;;;;;;;9.32;2.90;;;19.50;91.50;;;;;;5056189;28;20751;-34
2022/05/11 07:25:08;;;;;;;15.38;2.50;;;19.50;91.50;;;;;;5052496;28;20662;-34
2022/05/11 07:27:38;;;;;;;6.85;2.05;;;19.50;91.60;;;;;;5049073;28;20573;-34
2022/05/11 07:30:09;;;;;;;9.48;1.63;;;19.50;91.40;;;;;;5048474;28;20286;-35
2022/05/11 07:32:39;;;;;;;6.13;1.60;;;19.50;91.40;;;;;;5067238;28;20210;-35
2022/05/11 07:35:09;;;;;;;7.85;1.75;;;19.50;91.30;;;;;;5053347;28;20606;-34
2022/05/11 07:37:36;;;;;;;8.05;1.65;;;19.60;91.30;;;;;;5056408;28;20718;-34
2022/05/11 07:40:06;;;;;;;7.88;1.70;;;19.60;91.30;;;;;;5048356;28;20646;-34
2022/05/11 07:42:34;;;;;;;8.55;1.80;;;19.60;91.20;;;;;;5058438;28;20254;-34
2022/05/11 07:45:04;;;;;;;17.52;3.20;;;19.70;91.20;;;;;;5059288;28;20696;-35
2022/05/11 07:47:32;;;;;;;13.20;2.47;;;19.70;91.20;;;;;;5056274;28;20557;-35
2022/05/11 07:50:02;;;;;;;9.65;1.75;;;19.80;91.20;;;;;;5058207;28;20738;-36
2022/05/11 07:52:30;;;;;;;8.07;2.25;;;19.80;91.20;;;;;;5062464;28;20207;-36
2022/05/11 07:55:00;;;;;;;8.98;1.80;;;19.80;91.20;;;;;;5059413;28;20254;-36
2022/05/11 08:00:19;;;;;;;13.13;2.33;;;19.80;90.90;;;;;;5049894;28;20204;-36
2022/05/11 08:02:46;;;;;;;7.57;1.83;;;19.80;90.90;;;;;;5055374;28;20200;-36
2022/05/11 08:05:18;;;;;;;9.70;2.33;;;19.80;90.80;;;;;;5047297;28;20896;-36
2022/05/11 08:07:48;;;;;;;5.97;1.70;;;19.80;90.90;;;;;;5057704;28;20755;-36
2022/05/11 08:10:29;;;;;;;9.02;2.03;;;19.90;90.80;;;;;;5047808;28;20223;-36
2022/05/11 08:13:00;;;;;;;16.35;2.30;;;19.80;90.80;;;;;;5054299;28;20584;-36
2022/05/11 08:15:28;;;;;;;9.15;1.80;;;19.80;90.80;;;;;;5057852;28;20327;-36
2022/05/11 08:18:00;;;;;;;12.68;2.50;;;19.80;90.80;;;;;;5044935;28;20282;-35
2022/05/11 08:20:30;;;;;;;14.52;2.22;;;19.80;90.70;;;;;;5049110;28;20307;-38
2022/05/11 08:23:02;;;;;;;5.25;1.38;;;19.90;90.80;;;;;;5045737;28;20204;-36
2022/05/11 08:25:31;;;;;;;6.93;1.45;;;19.80;90.90;;;;;;5043829;28;20201;-37
2022/05/11 08:28:00;;;;;;;6.25;1.42;;;19.80;90.80;;;;;;5061230;28;20265;-36
2022/05/11 08:33:23;;;;;;;4.35;1.27;;;19.70;91.00;;;;;;5048947;28;20204;-36
2022/05/11 08:36:17;;;;;;;5.35;1.60;;;19.60;91.00;;;;;;5055340;28;20224;-36
2022/05/11 08:38:47;;;;;;;5.60;1.42;;;19.70;91.00;;;;;;5050613;28;20207;-40
2022/05/11 08:41:44;;;;;;;3.13;1.27;;;19.70;90.90;;;;;;5050176;28;20674;-41
2022/05/11 08:44:15;;;;;;;11.82;1.98;;;19.80;90.90;;;;;;5050025;28;20242;-41
2022/05/11 08:47:02;;;;;;;4.13;1.70;;;19.90;91.10;;;;;;5053824;28;20578;-41
2022/05/11 08:49:50;;;;;;;4.32;1.55;;;20.00;91.20;;;;;;5061743;28;20246;-40
2022/05/11 08:52:52;;;;;;;4.88;1.65;;;20.00;91.30;;;;;;5053521;28;21040;-36
2022/05/11 08:55:42;;;;;;;6.75;1.60;;;20.10;91.60;;;;;;5053678;28;20243;-36
2022/05/11 08:58:20;;;;;;;4.63;1.70;;;20.20;91.40;;;;;;5059634;28;20237;-36
2022/05/11 09:00:53;;;;;;;5.25;1.48;;;20.20;91.40;;;;;;5065411;28;20694;-36
2022/05/11 09:03:37;;;;;;;4.93;1.70;;;20.30;91.40;;;;;;5051381;28;20211;-36
2022/05/11 09:06:30;;;;;;;5.00;1.92;;;20.40;91.60;;;;;;5054688;28;20894;-35
2022/05/11 09:09:00;;;;;;;8.77;1.70;;;20.40;91.50;;;;;;5056338;28;20725;-36
2022/05/11 09:11:34;;;;;;;8.25;1.70;;;20.40;91.60;;;;;;5064496;28;20233;-36
2022/05/11 09:14:02;;;;;;;7.03;1.45;;;20.50;91.60;;;;;;5066582;28;20227;-35
2022/05/11 09:16:44;;;;;;;6.55;1.73;;;20.60;91.70;;;;;;5054877;28;20202;-36
2022/05/11 09:19:19;;;;;;;5.18;1.50;;;20.60;91.70;;;;;;5055848;28;20215;-36
2022/05/11 09:21:52;;;;;;;4.30;1.40;;;20.60;91.60;;;;;;5047485;28;20196;-35
2022/05/11 09:24:22;;;;;;;6.70;2.22;;;20.70;91.80;;;;;;5052034;28;20204;-35
2022/05/11 09:27:07;;;;;;;5.03;1.38;;;20.70;91.70;;;;;;5059113;28;20551;-35
2022/05/11 09:29:37;;;;;;;2.75;1.50;;;20.80;91.80;;;;;;5048781;28;20639;-35
2022/05/11 09:32:24;;;;;;;5.43;1.85;;;20.80;91.70;;;;;;5064577;28;20227;-36
2022/05/11 09:34:54;;;;;;;2.80;1.55;;;20.80;91.80;;;;;;5046819;28;20318;-36
2022/05/11 09:37:36;;;;;;;4.30;1.67;;;20.90;91.80;;;;;;5050642;28;20200;-35
2022/05/11 09:40:12;;;;;;;3.67;1.42;;;20.90;91.80;;;;;;5051441;28;20216;-35
2022/05/11 09:42:56;;;;;;;3.30;1.67;;;21.00;91.80;;;;;;5052017;28;20777;-35
2022/05/11 09:45:45;;;;;;;15.85;2.65;;;21.00;91.90;;;;;;5052307;28;20199;-35
2022/05/11 09:48:22;;;;;;;10.63;2.60;;;21.10;92.00;;;;;;5063490;28;20218;-35
2022/05/11 09:50:53;;;;;;;5.93;1.73;;;21.20;92.00;;;;;;5051514;28;20259;-40
2022/05/11 09:53:34;;;;;;;20.67;3.83;;;21.20;92.10;;;;;;5059453;28;20204;-36
2022/05/11 09:56:24;;;;;;;7.38;2.00;;;21.20;92.10;;;;;;5054317;28;20228;-36
2022/05/11 09:58:56;;;;;;;5.72;1.77;;;21.20;92.10;;;;;;5058694;28;20204;-36
2022/05/11 10:01:29;;;;;;;8.30;1.70;;;21.30;92.10;;;;;;5055657;28;20619;-35
2022/05/11 10:04:04;;;;;;;6.60;2.08;;;21.40;92.10;;;;;;5053806;28;20199;-37
2022/05/11 10:06:54;;;;;;;28.00;3.92;;;21.40;92.20;;;;;;5056114;28;20289;-41
2022/05/11 10:09:34;;;;;;;9.02;2.25;;;21.40;92.20;;;;;;5056047;28;20314;-41
2022/05/11 10:12:15;;;;;;;7.55;1.88;;;21.50;92.30;;;;;;5052985;28;20330;-36
2022/05/11 10:24:11;;;;;;;3.92;1.70;;;21.70;92.40;;;;;;5056348;28;20298;-41
2022/05/11 10:27:12;;;;;;;6.47;1.98;;;21.80;92.30;;;;;;5061911;28;20227;-41
2022/05/11 10:30:09;;;;;;;13.05;2.35;;;21.80;92.40;;;;;;5046763;28;20204;-41
2022/05/11 10:33:20;;;;;;;9.63;2.22;;;21.80;92.30;;;;;;5051136;28;20240;-41
2022/05/11 10:36:09;;;;;;;5.65;2.45;;;21.90;92.40;;;;;;5049518;28;20244;-41
2022/05/11 10:39:10;;;;;;;4.85;1.73;;;21.90;92.40;;;;;;5050434;28;20242;-41
2022/05/11 10:41:56;;;;;;;4.18;2.20;;;22.00;92.50;;;;;;5044279;28;20678;-40
2022/05/11 10:44:54;;;;;;;5.32;2.53;;;22.00;92.50;;;;;;5045153;28;20206;-40
2022/05/11 10:48:00;;;;;;;4.15;1.70;;;22.00;92.50;;;;;;5047011;28;20690;-40
2022/05/11 10:50:40;;;;;;;5.07;2.00;;;22.00;92.50;;;;;;5048270;28;20273;-40
2022/05/11 10:53:19;;;;;;;4.10;1.95;;;22.10;92.60;;;;;;5062642;28;20214;-40
2022/05/11 10:56:19;;;;;;;16.42;3.80;;;22.20;92.60;;;;;;5064902;28;20231;-41
2022/05/11 10:58:58;;;;;;;8.75;3.33;;;22.20;92.60;;;;;;5037032;28;20212;-36
2022/05/11 11:01:48;;;;;;;6.25;2.97;;;22.30;92.60;;;;;;5045985;28;20206;-35
2022/05/11 11:04:50;;;;;;;7.05;3.40;;;22.30;92.60;;;;;;5053141;28;20290;-36
2022/05/11 11:07:26;;;;;;;8.82;4.28;;;22.40;93.00;;;;;;5057883;28;20650;-36
2022/05/11 11:09:56;;;;;;;8.52;4.45;;;22.50;92.70;;;;;;5045059;28;20306;-36
2022/05/11 11:12:49;;;;;;;11.98;4.40;;;22.50;92.70;;;;;;5052535;28;20712;-36
2022/05/11 11:15:22;;;;;;;8.65;4.32;;;22.60;92.70;;;;;;5049278;28;20218;-36
2022/05/11 11:17:51;;;;;;;12.70;5.40;;;22.70;92.80;;;;;;5057394;28;20640;-35
2022/05/11 11:20:23;;;;;;;7.32;4.80;;;22.70;92.70;;;;;;5066168;28;20720;-35
2022/05/11 11:23:28;;;;;;;6.85;4.68;;;22.70;92.60;;;;;;5051843;28;20319;-35
2022/05/11 11:25:59;;;;;;;9.63;4.47;;;22.80;92.80;;;;;;5046980;28;20280;-36
2022/05/11 11:28:29;;;;;;;6.80;4.10;;;22.90;92.90;;;;;;5046363;28;20208;-36
2022/05/11 11:30:59;;;;;;;8.25;4.45;;;22.90;92.80;;;;;;5046613;28;20203;-35
2022/05/11 11:33:34;;;;;;;11.43;4.43;;;23.00;92.80;;;;;;5045351;28;20234;-35
2022/05/11 11:36:16;;;;;;;6.50;3.50;;;22.90;92.70;;;;;;5060468;28;20226;-35
2022/05/11 11:38:43;;;;;;;9.57;3.35;;;23.00;92.70;;;;;;5060579;28;20405;-36
2022/05/11 11:41:28;;;;;;;7.55;3.33;;;22.90;92.80;;;;;;5056387;28;20199;-35
2022/05/11 11:44:06;;;;;;;10.05;3.65;;;23.00;92.80;;;;;;5057783;28;20225;-37
2022/05/11 11:46:44;;;;;;;5.03;3.30;;;23.10;92.80;;;;;;5048616;28;20207;-40
2022/05/11 11:49:22;;;;;;;7.13;2.88;;;23.10;92.80;;;;;;5052656;28;20294;-40
2022/05/11 11:52:00;;;;;;;8.88;3.83;;;23.20;92.80;;;;;;5063593;28;20207;-40
2022/05/11 11:54:43;;;;;;;12.20;3.72;;;23.20;92.40;;;;;;5064925;28;20306;-40
2022/05/11 11:57:23;;;;;;;8.50;3.53;;;23.30;92.70;;;;;;5049188;28;20215;-40
2022/05/11 11:59:54;;;;;;;7.20;3.60;;;23.30;92.70;;;;;;5052103;28;20716;-40
2022/05/11 12:02:40;;;;;;;7.55;3.65;;;23.30;92.80;;;;;;5046211;28;20208;-40
2022/05/11 12:05:14;;;;;;;8.23;3.63;;;23.40;92.70;;;;;;5046480;28;20246;-40
2022/05/11 12:15:01;;;;;;;6.50;3.00;;;23.50;92.70;;;;;;5054749;28;20226;-35
2022/05/11 12:16:53;;;;;;;7.90;3.22;;;23.50;92.50;;;;;;5057960;28;20686;-35
2022/05/11 12:19:28;;;;;;;8.73;3.25;;;23.60;92.60;;;;;;5053033;28;20219;-35
2022/05/11 12:22:04;;;;;;;10.57;3.63;;;23.60;92.50;;;;;;5061709;28;20314;-35
2022/05/11 12:24:38;;;;;;;10.73;3.88;;;23.60;92.20;;;;;;5060300;28;20312;-35
2022/05/11 12:27:24;;;;;;;8.15;2.65;;;23.70;92.20;;;;;;5070560;28;20184;-35
2022/05/11 12:30:08;;;;;;;9.30;3.08;;;23.80;92.50;;;;;;5059132;28;20803;-40
2022/05/11 12:32:47;;;;;;;7.25;2.75;;;23.80;92.20;;;;;;5050279;28;20216;-41
2022/05/11 12:35:30;;;;;;;9.43;3.22;;;23.80;92.50;;;;;;5060445;28;20223;-40
2022/05/11 12:38:06;;;;;;;8.77;3.55;;;23.90;92.50;;;;;;5054221;28;20747;-35
2022/05/11 12:40:42;;;;;;;4.72;3.00;;;23.90;92.70;;;;;;5053272;28;20258;-36
2022/05/11 12:43:35;;;;;;;8.85;2.85;;;24.00;92.70;;;;;;5054615;28;20249;-35
2022/05/11 12:46:06;;;;;;;15.52;3.05;;;24.00;92.50;;;;;;5069859;28;20600;-35
2022/05/11 12:48:41;;;;;;;11.25;2.88;;;24.10;92.60;;;;;;5052231;28;20232;-35
2022/05/11 12:51:12;;;;;;;27.23;3.50;;;24.20;92.60;;;;;;5050963;28;20214;-35
2022/05/11 12:53:53;;;;;;;8.52;2.30;;;24.20;92.50;;;;;;5057331;28;20206;-35
2022/05/11 12:56:32;;;;;;;7.90;2.30;;;24.30;92.70;;;;;;5069516;28;20792;-35
2022/05/11 12:59:17;;;;;;;8.40;2.13;;;24.40;92.80;;;;;;5068358;28;20800;-35
2022/05/11 13:01:48;;;;;;;7.90;2.10;;;24.40;92.60;;;;;;5058343;28;20492;-35
2022/05/11 13:04:22;;;;;;;7.40;1.92;;;24.50;92.80;;;;;;5061531;28;20199;-35
2022/05/11 13:06:55;;;;;;;4.53;1.85;;;24.60;92.90;;;;;;5061580;28;20214;-35
2022/05/11 13:09:43;;;;;;;5.97;1.98;;;24.70;92.80;;;;;;5051064;28;20268;-41
2022/05/11 13:12:13;;;;;;;8.10;2.10;;;24.70;92.50;;;;;;5053601;28;20231;-41
2022/05/11 13:14:53;;;;;;;7.40;2.35;;;24.80;92.70;;;;;;5049304;28;20208;-41
2022/05/11 13:17:36;;;;;;;7.32;1.90;;;24.80;92.70;;;;;;5059114;28;20196;-41
2022/05/11 13:20:26;;;;;;;6.22;2.13;;;24.90;92.80;;;;;;5064583;28;20682;-39
2022/05/11 13:23:02;;;;;;;14.40;2.38;;;24.90;92.90;;;;;;5048238;28;20208;-39
2022/05/11 13:25:37;;;;;;;7.10;1.90;;;25.00;92.80;;;;;;5048791;28;20214;-40
2022/05/11 13:28:38;;;;;;;11.15;2.35;;;25.10;92.70;;;;;;5046787;28;20212;-40
2022/05/11 13:31:29;;;;;;;7.38;2.10;;;25.20;92.80;;;;;;5055624;28;20215;-40
2022/05/11 13:33:57;;;;;;;11.50;2.97;;;25.20;92.40;;;;;;5059457;28;20239;-41
2022/05/11 13:36:28;;;;;;;6.35;1.80;;;25.30;92.60;;;;;;5059415;28;20223;-40
2022/05/11 13:38:57;;;;;;;10.25;2.65;;;25.30;92.30;;;;;;5062752;28;20192;-40
2022/05/11 13:41:35;;;;;;;12.63;2.70;;;25.40;92.00;;;;;;5064141;28;20201;-40
2022/05/11 13:44:49;;;;;;;23.92;4.45;;;25.40;92.30;;;;;;5065402;28;20214;-41
2022/05/11 13:50:31;;;;;;;6.60;2.00;;;25.60;92.20;;;;;;5046694;28;20431;-40
2022/05/11 13:53:17;;;;;;;24.27;3.70;;;25.60;92.80;;;;;;5053092;28;20204;-40
2022/05/11 13:56:01;;;;;;;3.85;1.45;;;25.70;91.70;;;;;;5055596;28;20302;-40
2022/05/11 13:58:40;;;;;;;3.88;1.50;;;25.70;92.30;;;;;;5048448;28;20196;-39
2022/05/11 14:01:14;;;;;;;9.80;2.42;;;25.70;92.30;;;;;;5055763;28;20188;-39
2022/05/11 14:03:56;;;;;;;13.73;2.20;;;25.80;91.90;;;;;;5049433;28;21104;-39